createdAt,value
2023-05-15T00:00:09.214Z,57.21
2023-05-15T00:01:09.186Z,57.73
2023-05-15T00:02:09.250Z,57.45
2023-05-15T00:03:09.253Z,57.52
2023-05-15T00:04:09.213Z,57.35
2023-05-15T00:05:09.331Z,57.36
2023-05-15T00:06:09.297Z,57.37
2023-05-15T00:07:09.336Z,57.64
2023-05-15T00:08:09.398Z,56.96
2023-05-15T00:09:09.416Z,56.81
2023-05-15T00:10:09.461Z,56.89
2023-05-15T00:11:09.486Z,57.19
2023-05-15T00:12:09.464Z,57.63
2023-05-15T00:13:09.542Z,57.52
2023-05-15T00:14:09.536Z,57.59
2023-05-15T00:15:09.647Z,56.92
2023-05-15T00:16:09.645Z,57.07
2023-05-15T00:17:09.605Z,57.69
2023-05-15T00:18:09.712Z,57.94
2023-05-15T00:19:09.695Z,57.83
2023-05-15T00:20:09.617Z,57.84
2023-05-15T00:21:09.655Z,57.86
2023-05-15T00:22:09.711Z,57.70
2023-05-15T00:23:09.768Z,57.64
2023-05-15T00:24:09.806Z,57.64
2023-05-15T00:25:09.858Z,57.75
2023-05-15T00:26:09.930Z,57.81
2023-05-15T00:27:09.977Z,57.49
2023-05-15T00:28:10.036Z,58.00
2023-05-15T00:29:10.114Z,57.87
2023-05-15T00:30:10.168Z,57.88
2023-05-15T00:31:10.241Z,57.69
2023-05-15T00:32:10.295Z,57.86
2023-05-15T00:33:10.347Z,57.63
2023-05-15T00:34:10.401Z,57.63
2023-05-15T00:35:10.440Z,57.69
2023-05-15T00:36:10.507Z,56.77
2023-05-15T00:37:10.576Z,56.92
2023-05-15T00:38:10.624Z,57.29
2023-05-15T00:39:10.659Z,57.35
2023-05-15T00:40:10.773Z,57.58
2023-05-15T00:41:10.824Z,57.64
2023-05-15T00:42:10.861Z,57.69
2023-05-15T00:43:10.921Z,58.02
2023-05-15T00:44:10.969Z,58.07
2023-05-15T00:45:11.016Z,58.06
2023-05-15T00:46:11.078Z,58.05
2023-05-15T00:47:11.180Z,57.74
2023-05-15T00:48:11.168Z,57.69
2023-05-15T00:49:11.214Z,57.22
2023-05-15T00:50:11.258Z,57.49
2023-05-15T00:51:11.227Z,57.87
2023-05-15T00:52:11.236Z,57.84
2023-05-15T00:53:11.244Z,57.70
2023-05-15T00:54:11.322Z,57.66
2023-05-15T00:55:11.334Z,57.50
2023-05-15T00:56:11.387Z,57.64
2023-05-15T00:57:11.483Z,57.33
2023-05-15T00:58:11.522Z,57.09
2023-05-15T00:59:11.538Z,56.92
2023-05-15T01:00:11.552Z,57.12
2023-05-15T01:01:11.617Z,57.46
2023-05-15T01:02:11.615Z,57.54
2023-05-15T01:03:11.965Z,57.51
2023-05-15T01:04:11.530Z,57.79
2023-05-15T01:05:12.334Z,58.02
2023-05-15T01:06:11.597Z,58.01
2023-05-15T01:07:12.340Z,58.07
2023-05-15T01:08:11.637Z,58.22
2023-05-15T01:09:11.660Z,57.89
2023-05-15T01:10:11.976Z,57.07
2023-05-15T01:11:11.725Z,56.84
2023-05-15T01:12:11.782Z,56.78
2023-05-15T01:13:11.783Z,57.01
2023-05-15T01:14:11.908Z,57.18
2023-05-15T01:15:11.898Z,57.25
2023-05-15T01:16:11.915Z,57.47
2023-05-15T01:17:12.021Z,57.68
2023-05-15T01:18:12.035Z,57.94
2023-05-15T01:19:12.037Z,57.15
2023-05-15T01:20:11.943Z,56.96
2023-05-15T01:21:12.015Z,57.28
2023-05-15T01:22:12.059Z,57.24
2023-05-15T01:23:12.119Z,57.22
2023-05-15T01:24:12.160Z,57.44
2023-05-15T01:25:12.210Z,57.43
2023-05-15T01:26:12.200Z,57.33
2023-05-15T01:27:12.404Z,57.01
2023-05-15T01:28:12.299Z,57.37
2023-05-15T01:29:12.354Z,57.38
2023-05-15T01:30:12.424Z,57.50
2023-05-15T01:31:12.551Z,57.60
2023-05-15T01:32:12.592Z,57.77
2023-05-15T01:33:12.592Z,57.87
2023-05-15T01:34:12.671Z,57.83
2023-05-15T01:35:12.741Z,57.64
2023-05-15T01:36:12.775Z,57.06
2023-05-15T01:37:12.857Z,57.02
2023-05-15T01:38:12.904Z,57.21
2023-05-15T01:39:12.956Z,57.25
2023-05-15T01:40:12.996Z,57.44
2023-05-15T01:41:13.116Z,57.50
2023-05-15T01:42:13.130Z,57.68
2023-05-15T01:43:13.125Z,57.47
2023-05-15T01:44:13.191Z,56.96
2023-05-15T01:45:13.185Z,56.31
2023-05-15T01:46:13.251Z,55.83
2023-05-15T01:47:13.271Z,55.88
2023-05-15T01:48:13.265Z,56.55
2023-05-15T01:49:13.304Z,56.76
2023-05-15T01:50:13.305Z,56.89
2023-05-15T01:51:13.348Z,56.72
2023-05-15T01:52:13.397Z,56.95
2023-05-15T01:53:13.386Z,56.81
2023-05-15T01:54:13.385Z,56.84
2023-05-15T01:55:13.381Z,57.06
2023-05-15T01:56:13.388Z,57.46
2023-05-15T01:57:13.428Z,57.60
2023-05-15T01:58:13.353Z,57.70
2023-05-15T01:59:13.469Z,58.00
2023-05-15T02:00:13.368Z,57.16
2023-05-15T02:01:13.442Z,57.28
2023-05-15T02:02:13.450Z,57.59
2023-05-15T02:03:13.494Z,57.54
2023-05-15T02:04:13.389Z,57.66
2023-05-15T02:05:13.390Z,57.10
2023-05-15T02:06:13.400Z,57.35
2023-05-15T02:07:13.401Z,57.40
2023-05-15T02:08:13.407Z,57.72
2023-05-15T02:09:13.434Z,57.30
2023-05-15T02:10:13.497Z,56.94
2023-05-15T02:11:13.511Z,56.66
2023-05-15T02:12:13.575Z,56.60
2023-05-15T02:13:13.516Z,57.21
2023-05-15T02:14:13.496Z,57.27
2023-05-15T02:15:13.504Z,57.25
2023-05-15T02:16:13.598Z,57.33
2023-05-15T02:17:13.557Z,57.28
2023-05-15T02:18:13.547Z,57.24
2023-05-15T02:19:13.669Z,57.33
2023-05-15T02:20:13.616Z,57.13
2023-05-15T02:21:13.637Z,57.15
2023-05-15T02:22:13.698Z,57.29
2023-05-15T02:23:21.371Z,57.50
2023-05-15T02:24:13.716Z,57.59
2023-05-15T02:25:13.709Z,57.25
2023-05-15T02:26:13.761Z,57.48
2023-05-15T02:27:13.686Z,57.33
2023-05-15T02:28:13.667Z,57.45
2023-05-15T02:29:13.681Z,57.70
2023-05-15T02:30:13.652Z,57.76
2023-05-15T02:31:13.721Z,57.81
2023-05-15T02:32:13.761Z,57.84
2023-05-15T02:33:13.668Z,57.53
2023-05-15T02:34:13.616Z,56.96
2023-05-15T02:35:13.676Z,56.45
2023-05-15T02:36:13.629Z,56.53
2023-05-15T02:37:13.607Z,56.62
2023-05-15T02:38:13.595Z,56.92
2023-05-15T02:39:13.604Z,57.32
2023-05-15T02:40:13.594Z,57.28
2023-05-15T02:41:13.564Z,57.42
2023-05-15T02:42:13.564Z,57.24
2023-05-15T02:43:13.574Z,56.98
2023-05-15T02:44:13.632Z,56.44
2023-05-15T02:45:13.593Z,56.47
2023-05-15T02:46:13.611Z,56.68
2023-05-15T02:47:13.551Z,56.94
2023-05-15T02:48:13.550Z,56.88
2023-05-15T02:49:13.575Z,57.15
2023-05-15T02:50:13.546Z,57.10
2023-05-15T02:51:13.487Z,57.30
2023-05-15T02:52:13.517Z,57.21
2023-05-15T02:53:13.528Z,57.23
2023-05-15T02:54:13.501Z,57.28
2023-05-15T02:55:13.496Z,57.33
2023-05-15T02:56:13.519Z,57.38
2023-05-15T02:57:13.475Z,57.41
2023-05-15T02:58:13.450Z,57.33
2023-05-15T02:59:13.493Z,57.31
2023-05-15T03:00:13.454Z,57.09
2023-05-15T03:01:13.420Z,57.63
2023-05-15T03:02:13.477Z,57.12
2023-05-15T03:03:13.455Z,56.72
2023-05-15T03:04:13.502Z,57.30
2023-05-15T03:05:13.469Z,57.19
2023-05-15T03:06:13.449Z,57.07
2023-05-15T03:07:13.503Z,57.12
2023-05-15T03:08:13.500Z,56.38
2023-05-15T03:09:13.541Z,56.32
2023-05-15T03:10:13.499Z,56.55
2023-05-15T03:12:21.524Z,57.00
2023-05-15T03:13:13.522Z,57.36
2023-05-15T03:14:13.524Z,57.39
2023-05-15T03:15:13.486Z,57.56
2023-05-15T03:16:13.556Z,56.90
2023-05-15T03:17:13.618Z,57.51
2023-05-15T03:18:13.880Z,57.59
2023-05-15T03:19:13.582Z,57.70
2023-05-15T03:20:13.490Z,57.59
2023-05-15T03:21:13.471Z,57.90
2023-05-15T03:22:13.501Z,57.78
2023-05-15T03:23:13.451Z,58.24
2023-05-15T03:24:13.477Z,58.05
2023-05-15T03:25:13.515Z,58.06
2023-05-15T03:26:13.526Z,58.47
2023-05-15T03:27:13.606Z,58.47
2023-05-15T03:28:13.638Z,58.73
2023-05-15T03:29:13.630Z,58.96
2023-05-15T03:30:13.647Z,58.65
2023-05-15T03:31:13.708Z,58.67
2023-05-15T03:32:13.736Z,58.36
2023-05-15T03:33:13.658Z,58.03
2023-05-15T03:34:13.643Z,58.00
2023-05-15T03:35:13.680Z,58.24
2023-05-15T03:36:13.670Z,58.13
2023-05-15T03:37:13.718Z,58.30
2023-05-15T03:38:13.763Z,58.52
2023-05-15T03:39:13.784Z,58.62
2023-05-15T03:40:13.803Z,58.55
2023-05-15T03:41:13.796Z,58.69
2023-05-15T03:42:13.801Z,58.64
2023-05-15T03:43:13.817Z,58.70
2023-05-15T03:44:13.859Z,58.44
2023-05-15T03:45:13.881Z,58.30
2023-05-15T03:46:13.954Z,58.13
2023-05-15T03:47:13.995Z,58.18
2023-05-15T03:48:14.064Z,58.08
2023-05-15T03:49:14.083Z,58.19
2023-05-15T03:50:14.106Z,58.45
2023-05-15T03:51:14.117Z,58.47
2023-05-15T03:52:14.162Z,58.36
2023-05-15T03:53:14.203Z,58.49
2023-05-15T03:54:14.161Z,58.69
2023-05-15T03:55:14.129Z,58.53
2023-05-15T03:56:14.156Z,58.32
2023-05-15T03:57:14.248Z,57.89
2023-05-15T03:58:14.255Z,56.35
2023-05-15T03:59:14.312Z,56.46
2023-05-15T04:00:15.514Z,57.24
2023-05-15T04:01:14.340Z,57.71
2023-05-15T04:02:14.460Z,57.89
2023-05-15T04:03:14.636Z,57.92
2023-05-15T04:04:14.489Z,58.13
2023-05-15T04:05:14.557Z,58.28
2023-05-15T04:06:14.521Z,58.22
2023-05-15T04:07:14.604Z,58.28
2023-05-15T04:08:14.599Z,58.26
2023-05-15T04:09:14.604Z,58.21
2023-05-15T04:10:14.638Z,58.28
2023-05-15T04:11:14.679Z,58.17
2023-05-15T04:12:14.668Z,57.91
2023-05-15T04:13:14.723Z,57.86
2023-05-15T04:14:14.734Z,57.96
2023-05-15T04:15:14.785Z,57.82
2023-05-15T04:16:14.827Z,58.03
2023-05-15T04:17:14.798Z,58.13
2023-05-15T04:18:14.786Z,58.05
2023-05-15T04:19:14.888Z,57.77
2023-05-15T04:20:14.806Z,57.48
2023-05-15T04:21:14.887Z,58.04
2023-05-15T04:22:14.983Z,57.89
2023-05-15T04:23:14.938Z,57.56
2023-05-15T04:24:14.929Z,56.93
2023-05-15T04:25:15.219Z,56.99
2023-05-15T04:26:15.001Z,57.16
2023-05-15T04:27:15.041Z,57.71
2023-05-15T04:28:15.030Z,57.46
2023-05-15T04:29:15.088Z,57.57
2023-05-15T04:30:15.082Z,57.71
2023-05-15T04:31:15.105Z,57.68
2023-05-15T04:32:15.194Z,57.84
2023-05-15T04:33:15.245Z,58.37
2023-05-15T04:34:15.224Z,58.38
2023-05-15T04:35:15.292Z,58.48
2023-05-15T04:36:15.325Z,58.51
2023-05-15T04:37:15.357Z,58.58
2023-05-15T04:38:15.407Z,58.80
2023-05-15T04:39:15.379Z,58.79
2023-05-15T04:40:15.422Z,58.41
2023-05-15T04:41:15.401Z,58.71
2023-05-15T04:42:15.467Z,58.46
2023-05-15T04:43:15.478Z,58.11
2023-05-15T04:44:15.553Z,58.27
2023-05-15T04:45:15.556Z,58.40
2023-05-15T04:46:15.704Z,57.80
2023-05-15T04:47:15.689Z,57.92
2023-05-15T04:48:15.674Z,58.40
2023-05-15T04:49:15.988Z,58.03
2023-05-15T04:50:15.788Z,57.71
2023-05-15T04:51:15.871Z,57.67
2023-05-15T04:52:15.911Z,58.01
2023-05-15T04:53:15.920Z,58.65
2023-05-15T04:54:16.228Z,58.81
2023-05-15T04:55:15.966Z,58.97
2023-05-15T04:56:15.977Z,58.62
2023-05-15T04:57:16.086Z,58.38
2023-05-15T04:58:16.044Z,58.32
2023-05-15T04:59:16.043Z,58.40
2023-05-15T05:00:16.064Z,58.55
2023-05-15T05:01:16.135Z,58.34
2023-05-15T05:02:16.116Z,58.31
2023-05-15T05:03:16.217Z,58.60
2023-05-15T05:04:16.339Z,58.21
2023-05-15T05:05:16.210Z,58.40
2023-05-15T05:06:16.123Z,58.68
2023-05-15T05:07:16.445Z,58.63
2023-05-15T05:08:16.199Z,58.76
2023-05-15T05:09:16.255Z,57.46
2023-05-15T05:10:16.428Z,57.70
2023-05-15T05:11:16.274Z,57.77
2023-05-15T05:12:16.372Z,58.01
2023-05-15T05:13:16.412Z,57.82
2023-05-15T05:14:16.488Z,58.40
2023-05-15T05:15:16.537Z,58.52
2023-05-15T05:16:16.633Z,58.88
2023-05-15T05:17:16.673Z,58.57
2023-05-15T05:18:16.827Z,59.17
2023-05-15T05:19:16.845Z,59.29
2023-05-15T05:20:16.944Z,59.27
2023-05-15T05:21:16.819Z,59.22
2023-05-15T05:22:16.923Z,59.09
2023-05-15T05:23:17.095Z,59.09
2023-05-15T05:24:17.077Z,58.74
2023-05-15T05:25:17.089Z,58.34
2023-05-15T05:26:17.204Z,58.41
2023-05-15T05:27:17.201Z,58.49
2023-05-15T05:28:17.222Z,58.50
2023-05-15T05:29:17.311Z,58.63
2023-05-15T05:30:17.355Z,58.51
2023-05-15T05:31:17.533Z,59.14
2023-05-15T05:32:17.641Z,59.21
2023-05-15T05:33:17.574Z,59.75
2023-05-15T05:34:17.548Z,59.75
2023-05-15T05:35:17.564Z,59.86
2023-05-15T05:36:17.690Z,59.40
2023-05-15T05:37:17.697Z,59.15
2023-05-15T05:38:18.062Z,59.38
2023-05-15T05:39:17.783Z,59.32
2023-05-15T05:40:18.007Z,59.34
2023-05-15T05:41:17.906Z,59.48
2023-05-15T05:42:17.978Z,59.20
2023-05-15T05:43:18.083Z,59.09
2023-05-15T05:44:18.158Z,58.95
2023-05-15T05:45:18.113Z,58.89
2023-05-15T05:47:45.323Z,58.25
2023-05-15T05:48:37.636Z,57.11
2023-05-15T05:49:37.568Z,56.67
2023-05-15T05:50:38.474Z,56.99
2023-05-15T05:51:37.668Z,57.38
2023-05-15T05:52:37.800Z,57.78
2023-05-15T05:53:37.672Z,57.99
2023-05-15T05:54:37.566Z,57.97
2023-05-15T05:55:37.562Z,58.12
2023-05-15T05:56:37.512Z,58.15
2023-05-15T05:57:37.528Z,58.22
2023-05-15T05:58:37.789Z,58.24
2023-05-15T05:59:37.489Z,57.96
2023-05-15T06:00:37.501Z,57.53
2023-05-15T06:01:37.512Z,57.52
2023-05-15T06:02:37.608Z,57.57
2023-05-15T06:03:37.561Z,57.53
2023-05-15T06:04:37.474Z,58.19
2023-05-15T06:05:37.472Z,58.60
2023-05-15T06:06:37.458Z,58.51
2023-05-15T06:07:37.478Z,58.40
2023-05-15T06:08:38.115Z,57.60
2023-05-15T06:09:37.463Z,58.10
2023-05-15T06:10:37.480Z,58.13
2023-05-15T06:11:37.488Z,58.28
2023-05-15T06:12:37.519Z,58.34
2023-05-15T06:13:37.901Z,57.86
2023-05-15T06:14:37.521Z,57.54
2023-05-15T06:15:37.588Z,57.61
2023-05-15T06:16:37.735Z,57.70
2023-05-15T06:17:37.822Z,57.88
2023-05-15T06:18:37.868Z,57.84
2023-05-15T06:19:37.821Z,57.57
2023-05-15T06:20:37.911Z,57.75
2023-05-15T06:21:37.913Z,57.50
2023-05-15T06:22:38.083Z,57.94
2023-05-15T06:23:38.166Z,57.94
2023-05-15T06:24:38.152Z,57.68
2023-05-15T06:25:38.143Z,57.37
2023-05-15T06:26:38.289Z,57.09
2023-05-15T06:27:38.295Z,57.26
2023-05-15T06:28:38.388Z,57.43
2023-05-15T06:29:38.431Z,57.33
2023-05-15T06:30:38.557Z,57.30
2023-05-15T06:31:38.542Z,56.59
2023-05-15T06:32:38.656Z,56.02
2023-05-15T06:33:38.617Z,56.49
2023-05-15T06:34:38.614Z,56.65
2023-05-15T06:35:38.648Z,57.16
2023-05-15T06:36:38.685Z,57.46
2023-05-15T06:37:38.753Z,57.69
2023-05-15T06:38:38.808Z,58.01
2023-05-15T06:39:38.912Z,58.03
2023-05-15T06:40:38.929Z,58.22
2023-05-15T06:41:38.850Z,58.23
2023-05-15T06:42:39.078Z,58.26
2023-05-15T06:43:39.353Z,57.91
2023-05-15T06:44:39.068Z,57.50
2023-05-15T06:45:39.058Z,57.41
2023-05-15T06:46:39.954Z,57.76
2023-05-15T06:47:39.090Z,57.91
2023-05-15T06:48:39.174Z,57.63
2023-05-15T06:49:39.179Z,57.28
2023-05-15T06:50:39.196Z,57.40
2023-05-15T06:51:39.314Z,57.43
2023-05-15T06:52:39.317Z,57.74
2023-05-15T06:53:39.820Z,57.41
2023-05-15T06:54:39.393Z,57.20
2023-05-15T06:55:39.448Z,57.34
2023-05-15T06:56:39.539Z,57.41
2023-05-15T06:57:39.544Z,57.36
2023-05-15T06:58:39.854Z,56.78
2023-05-15T06:59:39.551Z,56.74
2023-05-15T07:00:39.668Z,56.84
2023-05-15T07:01:39.777Z,57.46
2023-05-15T07:02:39.731Z,57.64
2023-05-15T07:03:39.772Z,56.36
2023-05-15T07:04:39.739Z,56.01
2023-05-15T07:05:39.781Z,56.11
2023-05-15T07:06:39.728Z,56.20
2023-05-15T07:07:39.818Z,55.98
2023-05-15T07:08:39.766Z,56.12
2023-05-15T07:09:39.814Z,56.36
2023-05-15T07:10:39.839Z,55.59
2023-05-15T07:11:39.802Z,55.31
2023-05-15T07:12:39.832Z,55.70
2023-05-15T07:13:40.373Z,56.11
2023-05-15T07:14:39.799Z,56.26
2023-05-15T07:15:39.873Z,56.00
2023-05-15T07:16:39.877Z,55.76
2023-05-15T07:17:39.930Z,55.52
2023-05-15T07:18:40.003Z,55.50
2023-05-15T07:19:39.988Z,56.03
2023-05-15T07:20:40.074Z,55.85
2023-05-15T07:21:39.998Z,55.22
2023-05-15T07:22:51.944Z,55.67
2023-05-15T07:23:41.085Z,56.60
2023-05-15T07:24:40.783Z,56.51
2023-05-15T07:25:40.049Z,54.78
2023-05-15T07:26:50.157Z,55.18
2023-05-15T07:27:41.005Z,55.09
2023-05-15T07:28:40.096Z,54.35
2023-05-15T07:29:40.402Z,54.61
2023-05-15T07:30:40.041Z,55.19
2023-05-15T07:31:40.091Z,55.63
2023-05-15T07:32:40.002Z,54.90
2023-05-15T07:33:39.972Z,54.80
2023-05-15T07:34:40.832Z,56.39
2023-05-15T07:35:40.012Z,55.87
2023-05-15T07:36:40.013Z,55.34
2023-05-15T07:37:40.132Z,55.75
2023-05-15T07:38:40.053Z,56.38
2023-05-15T07:39:40.681Z,55.81
2023-05-15T07:40:40.164Z,55.69
2023-05-15T07:41:40.131Z,55.06
2023-05-15T07:42:40.140Z,55.68
2023-05-15T07:43:40.179Z,56.32
2023-05-15T07:44:41.385Z,55.91
2023-05-15T07:45:40.341Z,55.75
2023-05-15T07:46:40.259Z,56.53
2023-05-15T07:47:40.326Z,56.02
2023-05-15T07:48:40.211Z,56.29
2023-05-15T07:49:40.352Z,57.10
2023-05-15T07:50:40.324Z,56.60
2023-05-15T07:51:40.156Z,55.44
2023-05-15T07:52:40.200Z,54.91
2023-05-15T07:53:40.236Z,56.28
2023-05-15T07:54:40.260Z,54.94
2023-05-15T07:55:40.187Z,56.33
2023-05-15T07:56:40.207Z,56.82
2023-05-15T07:57:40.158Z,56.36
2023-05-15T07:58:40.204Z,55.50
2023-05-15T07:59:40.163Z,55.03
2023-05-15T08:00:40.190Z,55.06
2023-05-15T08:01:40.130Z,52.45
2023-05-15T08:02:40.362Z,51.77
2023-05-15T08:03:40.260Z,51.78
2023-05-15T08:04:40.285Z,51.72
2023-05-15T08:05:40.097Z,51.75
2023-05-15T08:06:41.174Z,52.13
2023-05-15T08:07:40.818Z,52.19
2023-05-15T08:08:40.326Z,50.75
2023-05-15T08:09:40.354Z,51.02
2023-05-15T08:10:40.343Z,50.80
2023-05-15T08:11:40.408Z,51.21
2023-05-15T08:12:40.468Z,51.46
2023-05-15T08:13:40.560Z,51.05
2023-05-15T08:14:40.730Z,50.91
2023-05-15T08:15:40.698Z,51.24
2023-05-15T08:16:40.690Z,51.50
2023-05-15T08:17:40.779Z,50.88
2023-05-15T08:18:40.984Z,51.11
2023-05-15T08:19:41.312Z,48.78
2023-05-15T08:20:40.844Z,49.35
2023-05-15T08:21:40.898Z,49.25
2023-05-15T08:22:40.960Z,45.27
2023-05-15T08:23:40.960Z,45.96
2023-05-15T08:24:41.091Z,46.06
2023-05-15T08:25:41.016Z,47.33
2023-05-15T08:26:41.024Z,50.80
2023-05-15T08:27:41.108Z,49.22
2023-05-15T08:28:41.076Z,49.14
2023-05-15T08:29:41.153Z,49.97
2023-05-15T08:30:42.827Z,48.07
2023-05-15T08:31:41.320Z,47.57
2023-05-15T08:32:41.312Z,47.16
2023-05-15T08:33:41.313Z,47.43
2023-05-15T08:34:41.904Z,47.90
2023-05-15T08:35:41.465Z,48.14
2023-05-15T08:36:41.401Z,48.14
2023-05-15T08:37:41.441Z,49.01
2023-05-15T08:38:41.454Z,49.00
2023-05-15T08:39:41.833Z,49.48
2023-05-15T08:40:41.473Z,47.89
2023-05-15T08:41:41.392Z,48.38
2023-05-15T08:42:41.390Z,48.63
2023-05-15T08:43:41.494Z,47.71
2023-05-15T08:44:41.455Z,47.72
2023-05-15T08:45:42.338Z,48.32
2023-05-15T08:46:41.615Z,48.39
2023-05-15T08:47:41.542Z,48.53
2023-05-15T08:48:41.598Z,47.19
2023-05-15T08:49:42.328Z,47.06
2023-05-15T08:50:41.742Z,47.33
2023-05-15T08:51:41.799Z,47.44
2023-05-15T08:52:41.872Z,46.13
2023-05-15T08:53:41.879Z,47.02
2023-05-15T08:54:42.381Z,47.88
2023-05-15T08:55:41.988Z,46.51
2023-05-15T08:56:42.096Z,47.11
2023-05-15T08:57:42.212Z,47.99
2023-05-15T08:58:42.201Z,48.94
2023-05-15T08:59:42.352Z,46.78
2023-05-15T09:00:42.335Z,47.94
2023-05-15T09:01:42.365Z,48.54
2023-05-15T09:02:42.633Z,49.14
2023-05-15T09:03:42.494Z,48.60
2023-05-15T09:04:42.860Z,48.65
2023-05-15T09:05:42.563Z,48.12
2023-05-15T09:06:42.587Z,47.95
2023-05-15T09:07:42.501Z,48.32
2023-05-15T09:08:42.598Z,48.13
2023-05-15T09:09:42.598Z,48.17
2023-05-15T09:10:42.605Z,47.02
2023-05-15T09:11:42.711Z,48.60
2023-05-15T09:12:42.723Z,49.45
2023-05-15T09:13:42.801Z,49.70
2023-05-15T09:14:43.884Z,48.37
2023-05-15T09:15:43.698Z,48.55
2023-05-15T09:16:43.082Z,48.67
2023-05-15T09:17:43.090Z,48.51
2023-05-15T09:18:43.046Z,49.37
2023-05-15T09:19:43.193Z,49.54
2023-05-15T09:20:43.182Z,49.46
2023-05-15T09:21:43.203Z,48.96
2023-05-15T09:22:43.210Z,48.55
2023-05-15T09:23:43.257Z,49.32
2023-05-15T09:24:43.356Z,49.89
2023-05-15T09:25:43.270Z,49.54
2023-05-15T09:26:43.447Z,49.43
2023-05-15T09:27:44.348Z,50.22
2023-05-15T09:28:43.293Z,50.04
2023-05-15T09:29:45.336Z,50.26
2023-05-15T09:30:43.361Z,50.31
2023-05-15T09:31:43.379Z,50.63
2023-05-15T09:32:43.400Z,50.17
2023-05-15T09:33:43.332Z,47.62
2023-05-15T09:34:43.383Z,47.70
2023-05-15T09:35:43.413Z,48.27
2023-05-15T09:36:43.491Z,48.42
2023-05-15T09:37:43.441Z,49.10
2023-05-15T09:38:43.434Z,49.69
2023-05-15T09:39:43.589Z,49.59
2023-05-15T09:40:43.454Z,49.59
2023-05-15T09:41:43.538Z,49.12
2023-05-15T09:42:43.559Z,49.64
2023-05-15T09:43:43.648Z,49.71
2023-05-15T09:44:43.748Z,49.77
2023-05-15T09:45:43.776Z,50.49
2023-05-15T09:46:43.818Z,50.93
2023-05-15T09:47:43.807Z,51.07
2023-05-15T09:48:43.951Z,51.12
2023-05-15T09:49:43.825Z,51.35
2023-05-15T09:50:43.907Z,51.93
2023-05-15T09:51:43.911Z,51.84
2023-05-15T09:52:43.924Z,51.90
2023-05-15T09:53:43.943Z,51.55
2023-05-15T09:54:43.968Z,51.51
2023-05-15T09:55:44.459Z,50.12
2023-05-15T09:56:43.926Z,50.77
2023-05-15T09:57:43.945Z,49.26
2023-05-15T09:58:44.064Z,49.96
2023-05-15T09:59:44.486Z,50.50
2023-05-15T10:00:48.694Z,51.25
2023-05-15T10:01:45.170Z,51.34
2023-05-15T10:02:44.221Z,51.82
2023-05-15T10:03:44.134Z,51.21
2023-05-15T10:04:44.120Z,51.48
2023-05-15T10:05:44.749Z,52.83
2023-05-15T10:06:44.067Z,52.29
2023-05-15T10:07:44.008Z,51.45
2023-05-15T10:08:44.018Z,51.26
2023-05-15T10:09:44.342Z,50.05
2023-05-15T10:10:44.702Z,49.96
2023-05-15T10:11:44.053Z,51.14
2023-05-15T10:12:44.054Z,49.97
2023-05-15T10:13:44.164Z,48.31
2023-05-15T10:14:44.161Z,48.01
2023-05-15T10:15:44.837Z,48.23
2023-05-15T10:16:44.319Z,49.82
2023-05-15T10:17:44.304Z,46.64
2023-05-15T10:18:44.318Z,49.31
2023-05-15T10:19:56.809Z,49.76
2023-05-15T10:20:45.362Z,49.64
2023-05-15T10:21:44.419Z,49.92
2023-05-15T10:22:45.276Z,50.19
2023-05-15T10:23:44.331Z,49.84
2023-05-15T10:24:45.365Z,50.70
2023-05-15T10:25:44.344Z,47.16
2023-05-15T10:26:44.349Z,46.66
2023-05-15T10:27:44.250Z,45.78
2023-05-15T10:28:45.023Z,46.89
2023-05-15T10:29:44.328Z,46.62
2023-05-15T10:30:44.868Z,45.70
2023-05-15T10:31:44.620Z,45.01
2023-05-15T10:32:44.501Z,47.45
2023-05-15T10:33:44.443Z,45.61
2023-05-15T10:34:44.724Z,45.56
2023-05-15T10:35:44.882Z,43.76
2023-05-15T10:36:44.627Z,44.69
2023-05-15T10:37:44.639Z,44.42
2023-05-15T10:38:45.367Z,44.43
2023-05-15T10:39:44.646Z,45.92
2023-05-15T10:40:44.686Z,46.09
2023-05-15T10:41:44.743Z,45.97
2023-05-15T10:42:44.818Z,45.27
2023-05-15T10:43:44.883Z,44.64
2023-05-15T10:44:44.882Z,45.27
2023-05-15T10:45:45.409Z,46.05
2023-05-15T10:46:45.069Z,45.52
2023-05-15T10:47:45.000Z,45.54
2023-05-15T10:48:45.056Z,45.72
2023-05-15T10:49:45.140Z,44.76
2023-05-15T10:50:45.415Z,44.68
2023-05-15T10:51:45.285Z,45.69
2023-05-15T10:52:45.260Z,45.95
2023-05-15T10:53:45.263Z,45.49
2023-05-15T10:54:45.263Z,45.83
2023-05-15T10:55:45.304Z,46.22
2023-05-15T10:56:45.355Z,44.21
2023-05-15T10:57:45.412Z,43.86
2023-05-15T10:58:45.420Z,43.77
2023-05-15T10:59:45.407Z,42.72
2023-05-15T11:00:45.971Z,42.79
2023-05-15T11:01:45.609Z,42.63
2023-05-15T11:02:45.562Z,42.88
2023-05-15T11:03:49.493Z,43.38
2023-05-15T11:04:46.789Z,43.83
2023-05-15T11:05:45.650Z,44.17
2023-05-15T11:06:45.774Z,44.18
2023-05-15T11:07:45.673Z,44.17
2023-05-15T11:08:45.616Z,44.87
2023-05-15T11:09:45.672Z,45.19
2023-05-15T11:10:45.880Z,45.04
2023-05-15T11:11:45.587Z,46.46
2023-05-15T11:12:45.693Z,46.49
2023-05-15T11:13:45.586Z,45.98
2023-05-15T11:14:45.703Z,44.85
2023-05-15T11:15:45.840Z,44.86
2023-05-15T11:16:45.877Z,44.16
2023-05-15T11:17:45.880Z,43.24
2023-05-15T11:18:45.862Z,42.78
2023-05-15T11:19:45.819Z,42.47
2023-05-15T11:20:45.872Z,42.08
2023-05-15T11:21:45.927Z,42.08
2023-05-15T11:22:45.952Z,42.31
2023-05-15T11:23:45.981Z,43.65
2023-05-15T11:24:45.887Z,43.30
2023-05-15T11:25:46.407Z,42.99
2023-05-15T11:26:45.967Z,42.86
2023-05-15T11:27:46.044Z,42.60
2023-05-15T11:28:46.009Z,43.05
2023-05-15T11:29:46.026Z,42.16
2023-05-15T11:30:48.017Z,43.32
2023-05-15T11:31:45.948Z,43.23
2023-05-15T11:32:46.062Z,43.65
2023-05-15T11:33:46.076Z,43.11
2023-05-15T11:34:45.968Z,43.80
2023-05-15T11:35:45.944Z,44.06
2023-05-15T11:36:46.378Z,44.47
2023-05-15T11:37:45.972Z,43.99
2023-05-15T11:38:45.991Z,44.09
2023-05-15T11:39:47.939Z,42.67
2023-05-15T11:40:45.930Z,43.36
2023-05-15T11:41:45.968Z,43.14
2023-05-15T11:42:45.888Z,42.99
2023-05-15T11:43:45.915Z,42.91
2023-05-15T11:44:45.913Z,43.08
2023-05-15T11:45:45.899Z,45.01
2023-05-15T11:46:45.942Z,45.10
2023-05-15T11:47:45.922Z,45.34
2023-05-15T11:48:45.859Z,45.71
2023-05-15T11:49:45.845Z,46.63
2023-05-15T11:50:45.891Z,47.19
2023-05-15T11:51:45.853Z,47.96
2023-05-15T11:52:45.839Z,47.88
2023-05-15T11:53:45.892Z,48.91
2023-05-15T11:54:45.864Z,49.18
2023-05-15T11:55:45.870Z,49.49
2023-05-15T11:56:46.020Z,48.70
2023-05-15T11:57:46.019Z,49.12
2023-05-15T11:58:46.138Z,49.17
2023-05-15T11:59:46.129Z,50.17
2023-05-15T12:00:46.152Z,48.77
2023-05-15T12:01:46.159Z,48.50
2023-05-15T12:02:46.214Z,47.81
2023-05-15T12:03:46.359Z,48.27
2023-05-15T12:04:46.350Z,47.87
2023-05-15T12:05:57.680Z,46.87
2023-05-15T12:06:47.329Z,46.84
2023-05-15T12:07:46.309Z,47.51
2023-05-15T12:08:46.298Z,48.56
2023-05-15T12:09:46.306Z,48.04
2023-05-15T12:10:46.268Z,47.83
2023-05-15T12:11:46.292Z,48.30
2023-05-15T12:12:46.312Z,49.22
2023-05-15T12:13:46.286Z,47.32
2023-05-15T12:14:46.303Z,47.03
2023-05-15T12:15:46.252Z,48.87
2023-05-15T12:16:46.274Z,44.90
2023-05-15T12:17:46.345Z,44.51
2023-05-15T12:18:46.324Z,46.01
2023-05-15T12:19:46.238Z,45.86
2023-05-15T12:20:46.292Z,47.02
2023-05-15T12:21:46.309Z,45.61
2023-05-15T12:22:46.310Z,42.65
2023-05-15T12:23:53.257Z,43.17
2023-05-15T12:24:47.295Z,42.64
2023-05-15T12:25:46.302Z,42.61
2023-05-15T12:26:46.277Z,43.03
2023-05-15T12:27:46.338Z,40.39
2023-05-15T12:28:46.291Z,40.87
2023-05-15T12:29:46.244Z,40.15
2023-05-15T12:30:46.268Z,40.91
2023-05-15T12:31:46.310Z,42.25
2023-05-15T12:32:46.345Z,42.95
2023-05-15T12:33:46.234Z,42.26
2023-05-15T12:34:46.238Z,40.95
2023-05-15T12:35:46.241Z,42.47
2023-05-15T12:36:46.254Z,43.06
2023-05-15T12:37:46.252Z,40.69
2023-05-15T12:38:46.322Z,40.90
2023-05-15T12:39:46.347Z,40.33
2023-05-15T12:40:46.334Z,39.65
2023-05-15T12:41:47.802Z,40.52
2023-05-15T12:42:46.407Z,39.02
2023-05-15T12:43:46.347Z,40.36
2023-05-15T12:44:46.353Z,39.13
2023-05-15T12:45:46.422Z,40.15
2023-05-15T12:46:46.398Z,40.89
2023-05-15T12:47:46.367Z,40.76
2023-05-15T12:48:46.348Z,40.78
2023-05-15T12:49:46.346Z,40.18
2023-05-15T12:50:46.342Z,39.24
2023-05-15T12:51:46.357Z,38.31
2023-05-15T12:52:46.343Z,38.93
2023-05-15T12:53:46.346Z,38.97
2023-05-15T12:54:46.369Z,39.65